Time;durP1;ratioP1;P1;durP2;ratioP2;P2;SDS_P1;SDS_P2;PMS_P1;PMS_P2;Temp;Humidity;BMP_temperature;BMP_pressure;BME280_temperature;BME280_humidity;BME280_pressure;Samples;Min_cycle;Max_cycle;Signal;HPM_P1;HPM_P2
2023/08/04 00:02:23;;;;;;;;;;;;;;;-140.72;100.00;52869.75;5098717;28;19939;-69
2023/08/04 00:04:48;;;;;;;;;;;;;;;-140.72;100.00;52857.59;5094701;28;19923;-69
2023/08/04 00:07:14;;;;;;;;;;;;;;;-140.72;100.00;52847.44;5094362;28;19998;-69
2023/08/04 00:09:39;;;;;;;;;;;;;;;-140.72;100.00;52837.28;5094619;28;19916;-69
2023/08/04 00:12:04;;;;;;;;;;;;;;;-140.72;100.00;52825.13;5081399;28;20274;-69
2023/08/04 00:14:30;;;;;;;;;;;;;;;-140.72;100.00;52847.44;5104942;28;20019;-69
2023/08/04 00:16:55;;;;;;;;;;;;;;;-140.72;100.00;52859.63;5096992;28;20342;-69
2023/08/04 00:19:20;;;;;;;;;;;;;;;-140.72;100.00;52827.16;5086068;28;19948;-69
2023/08/04 00:21:45;;;;;;;;;;;;;;;-140.72;100.00;52857.59;5078606;28;20369;-69
2023/08/04 00:24:10;;;;;;;;;;;;;;;-140.72;100.00;52835.25;5079199;28;20267;-69
2023/08/04 00:26:36;;;;;;;;;;;;;;;-140.72;100.00;52829.19;5076427;28;19917;-69
2023/08/04 00:29:01;;;;;;;;;;;;;;;-140.72;100.00;52861.66;5093980;28;20072;-69
2023/08/04 00:31:26;;;;;;;;;;;;;;;-140.72;100.00;52843.38;5091507;28;19920;-69
2023/08/04 00:33:51;;;;;;;;;;;;;;;-140.72;100.00;52867.72;5084374;28;20330;-69
2023/08/04 00:36:17;;;;;;;;;;;;;;;-140.72;100.00;52843.38;5094024;28;19916;-69
2023/08/04 00:38:42;;;;;;;;;;;;;;;-140.72;100.00;52865.69;5094576;28;19916;-69
2023/08/04 00:41:07;;;;;;;;;;;;;;;-140.72;100.00;52821.06;5079173;28;19920;-69
2023/08/04 00:43:32;;;;;;;;;;;;;;;-140.72;100.00;52814.97;5102179;28;19916;-69
2023/08/04 00:45:58;;;;;;;;;;;;;;;-140.72;100.00;52835.25;5076629;28;20263;-69
2023/08/04 00:48:26;;;;;;;;;;;;;;;-140.72;100.00;52823.09;5080589;28;19916;-69
2023/08/04 00:50:52;;;;;;;;;;;;;;;-140.72;100.00;52821.06;5093973;28;19923;-69
2023/08/04 00:53:17;;;;;;;;;;;;;;;-140.72;100.00;52792.66;5094466;28;19916;-69
2023/08/04 00:55:43;;;;;;;;;;;;;;;-140.72;100.00;52825.13;5102557;28;19924;-69
2023/08/04 00:58:08;;;;;;;;;;;;;;;-140.72;100.00;52831.19;5101394;28;19920;-69
2023/08/04 01:00:33;;;;;;;;;;;;;;;-140.72;100.00;52823.09;5092473;28;19923;-69
2023/08/04 01:02:59;;;;;;;;;;;;;;;-140.72;100.00;52825.13;5063727;28;19923;-69
2023/08/04 01:05:27;;;;;;;;;;;;;;;-140.72;100.00;52821.06;5093866;28;19930;-69
2023/08/04 01:08:18;;;;;;;;;;;;;;;-140.72;100.00;52827.16;5093639;28;20006;-69
2023/08/04 01:10:46;;;;;;;;;;;;;;;-140.72;100.00;52831.19;5074183;28;19917;-69
2023/08/04 01:13:13;;;;;;;;;;;;;;;-140.72;100.00;52812.94;5073417;28;19920;-69
2023/08/04 01:15:39;;;;;;;;;;;;;;;-140.72;100.00;52817.00;5079374;28;19916;-69
2023/08/04 01:18:04;;;;;;;;;;;;;;;-140.72;100.00;52869.75;5089534;28;19917;-69
2023/08/04 01:20:29;;;;;;;;;;;;;;;-140.72;100.00;52875.84;5093411;28;19920;-69
2023/08/04 01:22:55;;;;;;;;;;;;;;;-140.72;100.00;52886.00;5076039;28;19916;-69
2023/08/04 01:25:23;;;;;;;;;;;;;;;-140.72;100.00;52861.66;5073086;28;19927;-69
2023/08/04 01:28:00;;;;;;;;;;;;;;;-140.72;100.00;52812.94;5091165;28;19916;-69
2023/08/04 01:30:25;;;;;;;;;;;;;;;-140.72;100.00;52829.19;5081022;28;19916;-69
2023/08/04 01:32:51;;;;;;;;;;;;;;;-140.72;100.00;52869.75;5092769;28;20421;-69
2023/08/04 01:35:16;;;;;;;;;;;;;;;-140.72;100.00;52871.78;5093400;28;20011;-69
2023/08/04 01:37:43;;;;;;;;;;;;;;;-140.72;100.00;52825.13;5087802;28;20422;-69
2023/08/04 01:40:09;;;;;;;;;;;;;;;-140.72;100.00;52837.28;5070407;28;19920;-69
2023/08/04 01:42:34;;;;;;;;;;;;;;;-140.72;100.00;52817.00;5093574;28;19931;-69
2023/08/04 01:45:01;;;;;;;;;;;;;;;-140.72;100.00;52845.41;5087643;28;20439;-69
2023/08/04 01:47:26;;;;;;;;;;;;;;;-140.72;100.00;52796.72;5081839;28;19916;-69
2023/08/04 01:49:52;;;;;;;;;;;;;;;-140.72;100.00;52833.22;5097122;28;19961;-69
2023/08/04 01:52:17;;;;;;;;;;;;;;;-140.72;100.00;52857.59;5081681;28;20008;-69
2023/08/04 01:54:43;;;;;;;;;;;;;;;-140.72;100.00;52819.03;5081474;28;20293;-69
2023/08/04 01:57:08;;;;;;;;;;;;;;;-140.72;100.00;52865.69;5090138;28;19966;-69
2023/08/04 01:59:33;;;;;;;;;;;;;;;-140.72;100.00;52812.94;5077026;28;20300;-69
2023/08/04 02:01:59;;;;;;;;;;;;;;;-140.72;100.00;52853.53;5078719;28;19996;-69
2023/08/04 02:04:24;;;;;;;;;;;;;;;-140.72;100.00;52821.06;5097050;28;19923;-69
2023/08/04 02:06:49;;;;;;;;;;;;;;;-140.72;100.00;52831.19;5095573;28;19916;-69
2023/08/04 02:09:14;;;;;;;;;;;;;;;-140.72;100.00;52879.91;5097113;28;19920;-69
2023/08/04 02:11:40;;;;;;;;;;;;;;;-140.72;100.00;52833.22;5075690;28;19921;-69
2023/08/04 02:14:06;;;;;;;;;;;;;;;-140.72;100.00;52829.19;5089198;28;20347;-69
2023/08/04 02:16:33;;;;;;;;;;;;;;;-140.72;100.00;52819.03;5086702;28;19927;-69
2023/08/04 02:19:08;;;;;;;;;;;;;;;-140.72;100.00;52859.63;5094977;28;19916;-69
2023/08/04 02:21:34;;;;;;;;;;;;;;;-140.72;100.00;52859.63;5078625;28;20010;-69
2023/08/04 02:24:02;;;;;;;;;;;;;;;-140.72;100.00;52825.13;5076622;28;20392;-69
2023/08/04 02:26:27;;;;;;;;;;;;;;;-140.72;100.00;52853.53;5064072;28;20041;-69
2023/08/04 02:28:53;;;;;;;;;;;;;;;-140.72;100.00;52833.22;5096839;28;20368;-69
2023/08/04 02:31:19;;;;;;;;;;;;;;;-140.72;100.00;52841.34;5096311;28;20351;-69
2023/08/04 02:33:44;;;;;;;;;;;;;;;-140.72;100.00;52819.03;5084461;28;19948;-69
2023/08/04 02:36:11;;;;;;;;;;;;;;;-140.72;100.00;52804.81;5092149;28;20013;-70
2023/08/04 02:38:37;;;;;;;;;;;;;;;-140.72;100.00;52837.28;5093986;28;19920;-69
2023/08/04 02:41:02;;;;;;;;;;;;;;;-140.72;100.00;52827.16;5076183;28;20393;-69
2023/08/04 02:43:29;;;;;;;;;;;;;;;-140.72;100.00;52808.88;5093831;28;19969;-69
2023/08/04 02:45:54;;;;;;;;;;;;;;;-140.72;100.00;52817.00;5096312;28;19923;-69
2023/08/04 02:48:19;;;;;;;;;;;;;;;-140.72;100.00;52802.78;5086839;28;19920;-69
2023/08/04 02:50:46;;;;;;;;;;;;;;;-140.72;100.00;52825.13;5094776;28;19923;-69
2023/08/04 02:53:11;;;;;;;;;;;;;;;-140.72;100.00;52841.34;5085373;28;20014;-69
2023/08/04 02:55:37;;;;;;;;;;;;;;;-140.72;100.00;52829.19;5096196;28;20011;-69
2023/08/04 02:58:02;;;;;;;;;;;;;;;-140.72;100.00;52814.97;5078082;28;20378;-70
2023/08/04 03:00:27;;;;;;;;;;;;;;;-140.72;100.00;52806.84;5086927;28;19977;-69
2023/08/04 03:02:52;;;;;;;;;;;;;;;-140.72;100.00;52847.44;5082314;28;19947;-69
2023/08/04 03:05:18;;;;;;;;;;;;;;;-140.72;100.00;52869.75;5085203;28;19920;-69
2023/08/04 03:07:43;;;;;;;;;;;;;;;-140.72;100.00;52888.03;5086142;28;19954;-69
2023/08/04 03:10:08;;;;;;;;;;;;;;;-140.72;100.00;52869.75;5092076;28;19917;-69
2023/08/04 03:12:33;;;;;;;;;;;;;;;-140.72;100.00;52849.47;5087023;28;19916;-69
2023/08/04 03:14:59;;;;;;;;;;;;;;;-140.72;100.00;52821.06;5095751;28;20438;-69
2023/08/04 03:17:24;;;;;;;;;;;;;;;-140.72;100.00;52829.19;5086783;28;20294;-69
2023/08/04 03:19:49;;;;;;;;;;;;;;;-140.72;100.00;52867.72;5077798;28;20019;-69
2023/08/04 03:22:15;;;;;;;;;;;;;;;-140.72;100.00;52829.19;5086362;28;20376;-69
2023/08/04 03:24:40;;;;;;;;;;;;;;;-140.72;100.00;52841.34;5096585;28;20378;-70
2023/08/04 03:27:06;;;;;;;;;;;;;;;-140.72;100.00;52831.19;5084595;28;19923;-69
2023/08/04 03:29:31;;;;;;;;;;;;;;;-140.72;100.00;52827.16;5081871;28;19974;-69
2023/08/04 03:31:56;;;;;;;;;;;;;;;-140.72;100.00;52825.13;5094841;28;19943;-69
2023/08/04 03:34:21;;;;;;;;;;;;;;;-140.72;100.00;52800.75;5080966;28;20274;-69
2023/08/04 03:36:47;;;;;;;;;;;;;;;-140.72;100.00;52837.28;5077744;28;19916;-69
2023/08/04 03:39:12;;;;;;;;;;;;;;;-140.72;100.00;52812.94;5078121;28;19924;-69
2023/08/04 03:41:37;;;;;;;;;;;;;;;-140.72;100.00;52861.66;5076649;28;19917;-69
2023/08/04 03:44:02;;;;;;;;;;;;;;;-140.72;100.00;52821.06;5077419;28;19916;-69
2023/08/04 03:46:28;;;;;;;;;;;;;;;-140.72;100.00;52796.72;5095381;28;19968;-69
2023/08/04 03:48:53;;;;;;;;;;;;;;;-140.72;100.00;52843.38;5094036;28;20369;-68
2023/08/04 03:51:18;;;;;;;;;;;;;;;-140.72;100.00;52841.34;5092100;28;20381;-68
2023/08/04 03:53:43;;;;;;;;;;;;;;;-140.72;100.00;52821.06;5081455;28;19930;-68
2023/08/04 03:56:09;;;;;;;;;;;;;;;-140.72;100.00;52831.19;5095218;28;19965;-68
2023/08/04 03:58:34;;;;;;;;;;;;;;;-140.72;100.00;52853.53;5079535;28;19954;-68
2023/08/04 04:00:59;;;;;;;;;;;;;;;-140.72;100.00;52829.19;5084078;28;19923;-69
2023/08/04 04:03:24;;;;;;;;;;;;;;;-140.72;100.00;52821.06;5090272;28;19916;-69
2023/08/04 04:05:50;;;;;;;;;;;;;;;-140.72;100.00;52837.28;5094587;28;20379;-69
2023/08/04 04:08:15;;;;;;;;;;;;;;;-140.72;100.00;52857.59;5093335;28;19916;-69
2023/08/04 04:10:40;;;;;;;;;;;;;;;-140.72;100.00;52768.28;5095185;28;20014;-68
2023/08/04 04:13:05;;;;;;;;;;;;;;;-140.72;100.00;52817.00;5094436;28;20380;-68
2023/08/04 04:15:31;;;;;;;;;;;;;;;-140.72;100.00;52774.38;5088639;28;20649;-69
2023/08/04 04:17:56;;;;;;;;;;;;;;;-140.72;100.00;52817.00;5089859;28;19961;-68
2023/08/04 04:20:21;;;;;;;;;;;;;;;-140.72;100.00;52843.38;5080984;28;19920;-68
2023/08/04 04:22:46;;;;;;;;;;;;;;;-140.72;100.00;52829.19;5081471;28;19923;-69
2023/08/04 04:25:12;;;;;;;;;;;;;;;-140.72;100.00;52814.97;5075209;28;20371;-69
2023/08/04 04:27:37;;;;;;;;;;;;;;;-140.72;100.00;52806.84;5065336;28;19920;-68
2023/08/04 04:30:02;;;;;;;;;;;;;;;-140.72;100.00;52833.22;5079690;28;20267;-68
2023/08/04 04:32:27;;;;;;;;;;;;;;;-140.72;100.00;52788.59;5087412;28;19931;-68
2023/08/04 04:34:53;;;;;;;;;;;;;;;-140.72;100.00;52792.66;5086835;28;19916;-68
2023/08/04 04:37:18;;;;;;;;;;;;;;;-140.72;100.00;52837.28;5088740;28;19917;-68
2023/08/04 04:39:43;;;;;;;;;;;;;;;-140.72;100.00;52768.28;5083943;28;20441;-68
2023/08/04 04:42:08;;;;;;;;;;;;;;;-140.72;100.00;52788.59;5060120;28;20397;-69
2023/08/04 04:44:33;;;;;;;;;;;;;;;-140.72;100.00;52756.13;5085336;28;19916;-70
2023/08/04 04:46:59;;;;;;;;;;;;;;;-140.72;100.00;52819.03;5074349;28;19970;-69
2023/08/04 04:49:24;;;;;;;;;;;;;;;-140.72;100.00;52806.84;5087468;28;20389;-69
2023/08/04 04:51:49;;;;;;;;;;;;;;;-140.72;100.00;52849.47;5087364;28;19920;-69
2023/08/04 04:54:15;;;;;;;;;;;;;;;-140.72;100.00;52835.25;5074543;28;19922;-70
2023/08/04 04:56:40;;;;;;;;;;;;;;;-140.72;100.00;52788.59;5074247;28;20038;-69
2023/08/04 04:59:05;;;;;;;;;;;;;;;-140.72;100.00;52778.44;5087944;28;20273;-69
2023/08/04 05:01:30;;;;;;;;;;;;;;;-140.72;100.00;52788.59;5100185;28;19920;-69
2023/08/04 05:03:56;;;;;;;;;;;;;;;-140.72;100.00;52784.53;5100616;28;19922;-70
2023/08/04 05:06:21;;;;;;;;;;;;;;;-140.72;100.00;52796.72;5088437;28;20022;-69
2023/08/04 05:08:46;;;;;;;;;;;;;;;-140.72;100.00;52796.72;5090753;28;19916;-69
2023/08/04 05:11:11;;;;;;;;;;;;;;;-140.72;100.00;52802.78;5083350;28;19927;-69
2023/08/04 05:13:37;;;;;;;;;;;;;;;-140.72;100.00;52825.13;5076871;28;19920;-69
2023/08/04 05:16:04;;;;;;;;;;;;;;;-140.72;100.00;52806.84;5086766;28;20006;-69
2023/08/04 05:18:29;;;;;;;;;;;;;;;-140.72;100.00;52812.94;5096308;28;19916;-69
2023/08/04 05:20:55;;;;;;;;;;;;;;;-140.72;100.00;52784.53;5091325;28;19923;-69
2023/08/04 05:23:21;;;;;;;;;;;;;;;-140.72;100.00;52790.63;5097685;28;19964;-69
2023/08/04 05:25:47;;;;;;;;;;;;;;;-140.72;100.00;52804.81;5104863;28;19916;-69
2023/08/04 05:28:28;;;;;;;;;;;;;;;-140.72;100.00;52788.59;5094908;28;20369;-70
2023/08/04 05:30:57;;;;;;;;;;;;;;;-140.72;100.00;52790.63;5084838;28;19951;-69
2023/08/04 05:33:23;;;;;;;;;;;;;;;-140.72;100.00;52786.56;5073604;28;20310;-69
2023/08/04 05:35:48;;;;;;;;;;;;;;;-140.72;100.00;52792.66;5097790;28;19916;-69
2023/08/04 05:38:14;;;;;;;;;;;;;;;-140.72;100.00;52788.59;5085223;28;20350;-69
2023/08/04 05:40:41;;;;;;;;;;;;;;;-140.72;100.00;52784.53;5084205;28;20350;-69
2023/08/04 05:43:06;;;;;;;;;;;;;;;-140.72;100.00;52770.31;5096921;28;19923;-69
2023/08/04 05:45:35;;;;;;;;;;;;;;;-140.72;100.00;52772.34;5097548;28;19920;-69
2023/08/04 05:48:01;;;;;;;;;;;;;;;-140.72;100.00;52812.94;5090438;28;19927;-69
2023/08/04 05:50:29;;;;;;;;;;;;;;;-140.72;100.00;52756.13;5111308;28;20297;-69
2023/08/04 05:52:54;;;;;;;;;;;;;;;-140.72;100.00;52729.75;5075644;28;19916;-69
2023/08/04 05:55:19;;;;;;;;;;;;;;;-140.72;100.00;52800.75;5100999;28;20315;-69
2023/08/04 05:57:45;;;;;;;;;;;;;;;-140.72;100.00;52750.03;5085780;28;19916;-69
2023/08/04 06:00:10;;;;;;;;;;;;;;;-140.72;100.00;52735.81;5095433;28;19969;-69
2023/08/04 06:02:36;;;;;;;;;;;;;;;-140.72;100.00;52766.25;5097503;28;20417;-70
2023/08/04 06:05:01;;;;;;;;;;;;;;;-140.72;100.00;52810.91;5096017;28;19916;-69
2023/08/04 06:07:26;;;;;;;;;;;;;;;-140.72;100.00;52754.09;5077129;28;20361;-69
2023/08/04 06:09:51;;;;;;;;;;;;;;;-140.72;100.00;52768.28;5077147;28;20326;-69
2023/08/04 06:12:16;;;;;;;;;;;;;;;-140.72;100.00;52764.25;5096994;28;20351;-69
2023/08/04 06:14:45;;;;;;;;;;;;;;;-140.72;100.00;52796.72;5065810;28;20401;-69
2023/08/04 06:17:10;;;;;;;;;;;;;;;-140.72;100.00;52796.72;5084329;28;20908;-69
2023/08/04 06:19:38;;;;;;;;;;;;;;;-140.72;100.00;52778.44;5089873;28;19927;-69
2023/08/04 06:22:03;;;;;;;;;;;;;;;-140.72;100.00;52778.44;5096841;28;19920;-69
2023/08/04 06:24:28;;;;;;;;;;;;;;;-140.72;100.00;52739.88;5092658;28;19961;-69
2023/08/04 06:26:54;;;;;;;;;;;;;;;-140.72;100.00;52719.59;5088202;28;20376;-69
2023/08/04 06:29:19;;;;;;;;;;;;;;;-140.72;100.00;52764.25;5096588;28;19995;-69
2023/08/04 06:31:44;;;;;;;;;;;;;;;-140.72;100.00;52737.84;5088077;28;19965;-69
2023/08/04 06:34:09;;;;;;;;;;;;;;;-140.72;100.00;52723.66;5096565;28;20367;-69
2023/08/04 06:36:35;;;;;;;;;;;;;;;-140.72;100.00;52723.66;5087411;28;19916;-69
2023/08/04 06:39:00;;;;;;;;;;;;;;;-140.72;100.00;52743.94;5096604;28;20311;-69
2023/08/04 06:41:25;;;;;;;;;;;;;;;-140.72;100.00;52705.38;5072460;28;19916;-70
2023/08/04 06:43:50;;;;;;;;;;;;;;;-140.72;100.00;52672.91;5087861;28;20369;-69
2023/08/04 06:46:16;;;;;;;;;;;;;;;-140.72;100.00;52727.72;5084079;28;20257;-69
2023/08/04 06:48:41;;;;;;;;;;;;;;;-140.72;100.00;52683.06;5095079;28;20393;-69
2023/08/04 06:51:06;;;;;;;;;;;;;;;-140.72;100.00;52683.06;5076228;28;20279;-69
2023/08/04 06:53:31;;;;;;;;;;;;;;;-140.72;100.00;52685.09;5090523;28;19938;-70
2023/08/04 06:55:57;;;;;;;;;;;;;;;-140.72;100.00;52709.44;5084963;28;19923;-69
2023/08/04 06:58:22;;;;;;;;;;;;;;;-140.72;100.00;52711.47;5081850;28;19920;-69
2023/08/04 07:00:47;;;;;;;;;;;;;;;-140.72;100.00;52711.47;5075883;28;19944;-69
2023/08/04 07:03:12;;;;;;;;;;;;;;;-140.72;100.00;52672.91;5089564;28;20423;-69
2023/08/04 07:05:38;;;;;;;;;;;;;;;-140.72;100.00;52703.34;5075968;28;19920;-70
2023/08/04 07:08:03;;;;;;;;;;;;;;;-140.72;100.00;52707.41;5089452;28;19916;-70
2023/08/04 07:10:28;;;;;;;;;;;;;;;-140.72;100.00;52689.16;5077684;28;19916;-70
2023/08/04 07:12:53;;;;;;;;;;;;;;;-140.72;100.00;52695.25;5087762;28;20272;-70
2023/08/04 07:15:19;;;;;;;;;;;;;;;-140.72;100.00;52687.13;5077653;28;20370;-69
2023/08/04 07:17:44;;;;;;;;;;;;;;;-140.72;100.00;52689.16;5076339;28;19917;-69
2023/08/04 07:20:09;;;;;;;;;;;;;;;-140.72;100.00;52683.06;5089226;28;19970;-70
2023/08/04 07:22:35;;;;;;;;;;;;;;;-140.72;100.00;52660.75;5093958;28;19917;-69
2023/08/04 07:25:00;;;;;;;;;;;;;;;-140.72;100.00;52601.91;5082196;28;19956;-69
2023/08/04 07:27:25;;;;;;;;;;;;;;;-140.72;100.00;52681.03;5083407;28;19915;-69
2023/08/04 07:29:50;;;;;;;;;;;;;;;-140.72;100.00;52650.59;5100099;28;19920;-69
2023/08/04 07:32:17;;;;;;;;;;;;;;;-140.72;100.00;52630.31;5065026;28;19920;-69
2023/08/04 07:34:42;;;;;;;;;;;;;;;-140.72;100.00;52650.59;5082463;28;20326;-69
2023/08/04 07:37:07;;;;;;;;;;;;;;;-140.72;100.00;52630.31;5094468;28;19920;-69
2023/08/04 07:39:32;;;;;;;;;;;;;;;-140.72;100.00;52660.75;5078674;28;19917;-70
2023/08/04 07:41:58;;;;;;;;;;;;;;;-140.72;100.00;52685.09;5087565;28;20476;-69
2023/08/04 07:44:23;;;;;;;;;;;;;;;-140.72;100.00;52662.78;5087144;28;19976;-69
2023/08/04 07:46:48;;;;;;;;;;;;;;;-140.72;100.00;52676.97;5086329;28;19916;-69
2023/08/04 07:49:13;;;;;;;;;;;;;;;-140.72;100.00;52658.72;5094576;28;20007;-70
2023/08/04 07:51:39;;;;;;;;;;;;;;;-140.72;100.00;52660.75;5078029;28;20007;-70
2023/08/04 07:54:05;;;;;;;;;;;;;;;-140.72;100.00;52656.69;5077966;28;19970;-69
2023/08/04 07:56:33;;;;;;;;;;;;;;;-140.72;100.00;52658.72;5081625;28;19927;-69
2023/08/04 07:58:58;;;;;;;;;;;;;;;-140.72;100.00;52670.88;5095080;28;19916;-69
2023/08/04 08:01:24;;;;;;;;;;;;;;;-140.72;100.00;52679.00;5083050;28;19942;-69
2023/08/04 08:03:49;;;;;;;;;;;;;;;-140.72;100.00;52670.88;5093119;28;20003;-70
2023/08/04 08:06:14;;;;;;;;;;;;;;;-140.72;100.00;52640.44;5083133;28;20003;-69
2023/08/04 08:08:39;;;;;;;;;;;;;;;-140.72;100.00;52630.31;5093736;28;19924;-69
2023/08/04 08:11:08;;;;;;;;;;;;;;;-140.72;100.00;52630.31;5085583;28;19923;-69
2023/08/04 08:13:33;;;;;;;;;;;;;;;-140.72;100.00;52610.00;5090792;28;19924;-69
2023/08/04 08:16:05;;;;;;;;;;;;;;;-140.72;100.00;52610.00;5082503;28;20050;-69
2023/08/04 08:18:30;;;;;;;;;;;;;;;-140.72;100.00;52616.09;5079281;28;19920;-69
2023/08/04 08:20:55;;;;;;;;;;;;;;;-140.72;100.00;52603.94;5077718;28;19923;-70
2023/08/04 08:23:20;;;;;;;;;;;;;;;-140.72;100.00;52654.66;5086861;28;19916;-70
2023/08/04 08:25:46;;;;;;;;;;;;;;;-140.72;100.00;52630.31;5080310;28;19956;-69
2023/08/04 08:28:11;;;;;;;;;;;;;;;-140.72;100.00;52628.28;5086118;28;19977;-69
2023/08/04 08:30:36;;;;;;;;;;;;;;;-140.72;100.00;52614.06;5087894;28;20401;-70
2023/08/04 08:33:01;;;;;;;;;;;;;;;-140.72;100.00;52581.59;5094497;28;19920;-70
2023/08/04 08:35:27;;;;;;;;;;;;;;;-140.72;100.00;52628.28;5095250;28;19920;-69
2023/08/04 08:37:52;;;;;;;;;;;;;;;-140.72;100.00;52634.38;5106414;28;20254;-69
2023/08/04 08:40:18;;;;;;;;;;;;;;;-140.72;100.00;52622.19;5092827;28;19916;-69
2023/08/04 08:42:43;;;;;;;;;;;;;;;-140.72;100.00;52620.16;5093912;28;19916;-69
2023/08/04 08:45:09;;;;;;;;;;;;;;;-140.72;100.00;52610.00;5094575;28;20426;-69
2023/08/04 08:47:35;;;;;;;;;;;;;;;-140.72;95.90;52593.78;5070919;28;19924;-69
2023/08/04 08:50:01;;;;;;;;;;;;;;;-140.72;67.13;52547.09;5085938;28;19920;-69
2023/08/04 08:52:29;;;;;;;;;;;;;;;-140.72;45.05;52573.50;5071975;28;19923;-69
2023/08/04 08:54:55;;;;;;;;;;;;;;;-140.72;28.25;52585.66;5087666;28;19916;-70
2023/08/04 08:57:20;;;;;;;;;;;;;;;-140.72;24.34;52620.16;5088350;28;20840;-69
2023/08/04 08:59:46;;;;;;;;;;;;;;;-140.72;14.36;52605.94;5084653;28;20018;-69
2023/08/04 09:02:13;;;;;;;;;;;;;;;-140.72;0.00;52573.50;5093491;28;19923;-69
2023/08/04 09:04:38;;;;;;;;;;;;;;;-140.72;0.00;52569.44;5083900;28;19924;-70
2023/08/04 09:07:04;;;;;;;;;;;;;;;-140.72;0.00;52573.50;5091091;28;19916;-69
2023/08/04 09:09:29;;;;;;;;;;;;;;;-140.72;0.00;52591.75;5093786;28;19920;-69
2023/08/04 09:11:55;;;;;;;;;;;;;;;-140.72;0.00;52492.31;5094089;28;19994;-70
2023/08/04 09:14:20;;;;;;;;;;;;;;;-140.72;0.00;52467.97;5064948;28;20110;-69
2023/08/04 09:16:47;;;;;;;;;;;;;;;-140.72;0.00;52453.75;5105253;28;20405;-67
2023/08/04 09:19:14;;;;;;;;;;;;;;;-140.72;0.00;52492.31;5093707;28;19985;-67
2023/08/04 09:21:39;;;;;;;;;;;;;;;-140.72;0.00;52490.28;5075627;28;19916;-69
2023/08/04 09:24:08;;;;;;;;;;;;;;;-140.72;0.00;52536.97;5074049;28;19959;-69
2023/08/04 09:26:43;;;;;;;;;;;;;;;-140.72;0.00;52437.53;5079532;28;20076;-70
2023/08/04 09:29:09;;;;;;;;;;;;;;;-140.72;0.00;52457.81;5093960;28;20309;-68
2023/08/04 09:31:36;;;;;;;;;;;;;;;-140.72;0.00;52463.91;5106588;28;19920;-70
2023/08/04 09:34:03;;;;;;;;;;;;;;;-140.72;0.00;52398.97;5074600;28;19920;-70
2023/08/04 09:36:28;;;;;;;;;;;;;;;-140.72;0.00;52394.91;5074808;28;20057;-68
2023/08/04 09:39:00;;;;;;;;;;;;;;;-140.72;0.00;52398.97;5089034;28;20413;-70
2023/08/04 09:41:25;;;;;;;;;;;;;;;-140.72;0.00;52425.34;5093029;28;19923;-69
2023/08/04 09:43:52;;;;;;;;;;;;;;;-140.72;0.00;52457.81;5083466;28;19916;-69
2023/08/04 09:46:17;;;;;;;;;;;;;;;-140.72;0.00;52451.72;5075469;28;19916;-69
2023/08/04 09:48:42;;;;;;;;;;;;;;;-140.72;0.00;52476.09;5093193;28;19916;-69
2023/08/04 09:51:12;;;;;;;;;;;;;;;-140.72;0.00;52496.38;5093889;28;19942;-69
2023/08/04 09:53:41;;;;;;;;;;;;;;;-140.72;0.00;52502.47;5079151;28;19952;-69
2023/08/04 09:56:08;;;;;;;;;;;;;;;-140.72;0.00;52496.38;5086033;28;19962;-69
2023/08/04 09:58:34;;;;;;;;;;;;;;;-140.72;0.00;52543.03;5073415;28;19917;-70
2023/08/04 10:01:00;;;;;;;;;;;;;;;-140.72;0.00;52457.81;5095050;28;19916;-69
2023/08/04 10:03:25;;;;;;;;;;;;;;;-140.72;0.00;52362.44;5083841;28;20031;-69
2023/08/04 10:05:52;;;;;;;;;;;;;;;-140.72;0.00;52390.84;5087242;28;19920;-69
2023/08/04 10:08:18;;;;;;;;;;;;;;;-140.72;0.00;52313.75;5108218;27;19917;-69
2023/08/04 10:10:44;;;;;;;;;;;;;;;-140.72;0.00;52325.94;5091713;28;19923;-69
2023/08/04 10:13:09;;;;;;;;;;;;;;;-140.72;0.00;52388.84;5092003;28;19923;-70
2023/08/04 10:15:34;;;;;;;;;;;;;;;-140.72;0.00;52403.03;5093298;28;19917;-69
2023/08/04 10:18:00;;;;;;;;;;;;;;;-140.72;0.00;52472.03;5083264;28;19924;-70
2023/08/04 10:20:27;;;;;;;;;;;;;;;-140.72;0.00;52423.31;5093103;28;20057;-69
2023/08/04 10:22:52;;;;;;;;;;;;;;;-140.72;0.00;52352.31;5084213;28;19916;-69
2023/08/04 10:25:17;;;;;;;;;;;;;;;-140.72;0.00;52283.31;5095699;28;19923;-69
2023/08/04 10:27:47;;;;;;;;;;;;;;;-140.72;0.00;52220.41;5101261;28;20640;-70
2023/08/04 10:30:12;;;;;;;;;;;;;;;-140.72;0.00;52212.31;5092402;28;19916;-70
2023/08/04 10:32:38;;;;;;;;;;;;;;;-140.72;0.00;52187.97;5082358;28;19927;-69
2023/08/04 10:35:16;;;;;;;;;;;;;;;-140.72;0.00;52277.22;5086426;28;19917;-70
2023/08/04 10:37:59;;;;;;;;;;;;;;;-140.72;0.00;52291.44;5081038;28;19927;-70
2023/08/04 10:40:30;;;;;;;;;;;;;;;-140.72;0.00;52265.06;5090014;28;20335;-70
2023/08/04 10:43:06;;;;;;;;;;;;;;;-140.72;0.00;52273.19;5092342;28;20263;-70
2023/08/04 10:45:51;;;;;;;;;;;;;;;-140.72;0.00;52287.38;5091610;28;19942;-69
2023/08/04 10:48:17;;;;;;;;;;;;;;;-140.72;0.00;52338.09;5107834;28;20396;-70
2023/08/04 10:50:42;;;;;;;;;;;;;;;-140.72;0.00;52401.00;5098274;28;20323;-69
2023/08/04 10:53:09;;;;;;;;;;;;;;;-140.72;0.00;52405.06;5095703;28;19916;-69
2023/08/04 10:55:34;;;;;;;;;;;;;;;-140.72;0.00;52407.09;5094230;28;19920;-69
2023/08/04 10:57:59;;;;;;;;;;;;;;;-140.72;0.00;52350.28;5096303;28;19980;-69
2023/08/04 11:00:24;;;;;;;;;;;;;;;-140.72;0.00;52216.34;5082641;28;19916;-69
2023/08/04 11:02:50;;;;;;;;;;;;;;;-140.72;0.00;52313.75;5095594;28;19920;-69
2023/08/04 11:05:15;;;;;;;;;;;;;;;-140.72;0.00;52344.19;5084584;28;19937;-69
2023/08/04 11:07:46;;;;;;;;;;;;;;;-140.72;0.00;52372.59;5085129;28;19924;-69
2023/08/04 11:10:12;;;;;;;;;;;;;;;-140.72;0.00;52386.81;5081331;28;19916;-69
2023/08/04 11:12:37;;;;;;;;;;;;;;;-140.72;0.00;52451.72;5092322;28;20348;-69
2023/08/04 11:15:03;;;;;;;;;;;;;;;-140.72;0.00;52470.00;5080955;28;20358;-69
2023/08/04 11:17:28;;;;;;;;;;;;;;;-140.72;0.00;52459.84;5075971;28;19916;-69
2023/08/04 11:19:54;;;;;;;;;;;;;;;-140.72;0.00;52484.19;5077662;28;19917;-69
2023/08/04 11:22:23;;;;;;;;;;;;;;;-140.72;0.00;52313.75;5095867;28;19916;-69
2023/08/04 11:24:50;;;;;;;;;;;;;;;-140.72;0.00;52305.63;5095305;28;19916;-69
2023/08/04 11:27:15;;;;;;;;;;;;;;;-140.72;0.00;52303.59;5087652;28;19921;-69
2023/08/04 11:29:40;;;;;;;;;;;;;;;-140.72;0.00;52303.59;5075781;28;19926;-69
2023/08/04 11:32:17;;;;;;;;;;;;;;;-140.72;0.00;52265.06;5088453;28;19920;-69
2023/08/04 11:34:42;;;;;;;;;;;;;;;-140.72;0.00;52224.47;5075638;28;19916;-69
2023/08/04 11:37:07;;;;;;;;;;;;;;;-140.72;0.00;52218.38;5091628;28;20574;-69
2023/08/04 11:39:34;;;;;;;;;;;;;;;-140.72;0.00;52285.34;5085975;28;19924;-69
2023/08/04 11:42:00;;;;;;;;;;;;;;;-140.72;0.00;52372.59;5082090;28;19916;-69
2023/08/04 11:44:25;;;;;;;;;;;;;;;-140.72;0.00;52275.19;5088641;28;19973;-69
2023/08/04 11:46:50;;;;;;;;;;;;;;;-140.72;0.00;52297.53;5085049;28;19927;-69
2023/08/04 11:49:15;;;;;;;;;;;;;;;-140.72;0.00;52342.16;5095367;28;19920;-69
2023/08/04 11:51:44;;;;;;;;;;;;;;;-140.72;0.00;52340.13;5085794;28;19964;-69
2023/08/04 11:54:20;;;;;;;;;;;;;;;-140.72;0.00;52289.41;5084480;28;20057;-69
2023/08/04 11:56:45;;;;;;;;;;;;;;;-140.72;0.00;52323.91;5096088;28;19923;-69
2023/08/04 11:59:11;;;;;;;;;;;;;;;-140.72;0.00;52374.63;5078812;28;19917;-69
2023/08/04 12:01:36;;;;;;;;;;;;;;;-140.72;0.00;52394.91;5085347;28;20053;-69
2023/08/04 12:04:02;;;;;;;;;;;;;;;-140.72;0.00;52352.31;5081911;28;20002;-69
2023/08/04 12:06:29;;;;;;;;;;;;;;;-140.72;0.00;52325.94;5084834;28;20396;-69
2023/08/04 12:08:55;;;;;;;;;;;;;;;-140.72;0.00;52303.59;5075123;28;19970;-70
2023/08/04 12:11:21;;;;;;;;;;;;;;;-140.72;0.00;52236.66;5082225;28;20321;-69
2023/08/04 12:13:46;;;;;;;;;;;;;;;-140.72;0.00;52234.63;5076882;28;19923;-69
2023/08/04 12:16:12;;;;;;;;;;;;;;;-140.72;0.00;52066.22;5085786;28;19917;-69
2023/08/04 12:18:39;;;;;;;;;;;;;;;-140.72;0.00;52204.19;5079888;28;20316;-71